createdAt,value
2019-05-10T00:00:58.632Z,96612.94
2019-05-10T00:02:19.835Z,96612.36
2019-05-10T00:03:41.555Z,96608.83
2019-05-10T00:05:03.163Z,96607.89
2019-05-10T00:06:26.810Z,96614.44
2019-05-10T00:07:48.896Z,96613.00
2019-05-10T00:08:53.578Z,96612.16
2019-05-10T00:09:56.539Z,96612.16
2019-05-10T00:11:05.166Z,96606.00
2019-05-10T00:12:13.671Z,96611.38
2019-05-10T00:13:24.944Z,96616.55
2019-05-10T00:14:45.846Z,96611.38
2019-05-10T00:15:49.681Z,96615.99
2019-05-10T00:16:54.952Z,96610.25
2019-05-10T00:18:00.259Z,96606.44
2019-05-10T00:19:03.891Z,96599.34
2019-05-10T00:20:08.493Z,96599.34
2019-05-10T00:21:12.144Z,96597.08
2019-05-10T00:22:16.039Z,96595.11
2019-05-10T00:23:19.685Z,96585.03
2019-05-10T00:24:23.536Z,96591.77
2019-05-10T00:25:27.197Z,96589.02
2019-05-10T00:26:31.013Z,96595.32
2019-05-10T00:27:34.681Z,96586.04
2019-05-10T00:28:38.550Z,96583.44
2019-05-10T00:29:42.360Z,96583.44
2019-05-10T00:30:46.326Z,96581.02
2019-05-10T00:31:49.961Z,96584.89
2019-05-10T00:32:53.714Z,96586.82
2019-05-10T00:33:57.368Z,96586.13
2019-05-10T00:35:01.176Z,96586.13
2019-05-10T00:36:04.914Z,96591.58
2019-05-10T00:37:08.752Z,96594.48
2019-05-10T00:38:12.380Z,96598.24
2019-05-10T00:39:19.378Z,96597.80
2019-05-10T00:40:21.627Z,96594.84
2019-05-10T00:41:25.489Z,96596.18
2019-05-10T00:42:29.144Z,96595.75
2019-05-10T00:43:33.019Z,96595.55
2019-05-10T00:44:36.572Z,96589.23
2019-05-10T00:45:40.726Z,96588.45
2019-05-10T00:46:44.735Z,96589.45
2019-05-10T00:47:48.551Z,96594.33
2019-05-10T00:48:52.298Z,96600.66
2019-05-10T00:49:56.530Z,96602.00
2019-05-10T00:51:00.162Z,96599.09
2019-05-10T00:52:04.023Z,96599.09
2019-05-10T00:53:07.849Z,96602.41
2019-05-10T00:54:11.696Z,96595.91
2019-05-10T00:55:19.061Z,96595.91
2019-05-10T00:56:21.036Z,96594.55
2019-05-10T00:57:24.643Z,96598.02
2019-05-10T00:58:28.473Z,96598.02
2019-05-10T00:59:32.204Z,96593.98
2019-05-10T01:00:36.041Z,96593.98
2019-05-10T01:01:39.677Z,96600.64
2019-05-10T01:02:43.548Z,96606.24
2019-05-10T01:03:47.130Z,96604.52
2019-05-10T01:04:50.965Z,96608.00
2019-05-10T01:05:54.681Z,96617.52
2019-05-10T01:06:58.565Z,96602.54
2019-05-10T01:08:02.314Z,96601.55
2019-05-10T01:09:07.127Z,96601.55
2019-05-10T01:10:11.057Z,96595.73
2019-05-10T01:11:14.885Z,96596.45
2019-05-10T01:12:18.568Z,96596.45
2019-05-10T01:13:22.398Z,96592.77
2019-05-10T01:14:26.159Z,96597.15
2019-05-10T01:15:30.059Z,96585.32
2019-05-10T01:16:33.700Z,96592.48
2019-05-10T01:17:37.550Z,96592.48
2019-05-10T01:18:41.247Z,96592.70
2019-05-10T01:19:45.239Z,96592.70
2019-05-10T01:20:49.152Z,96598.16
2019-05-10T01:21:53.012Z,96596.95
2019-05-10T01:22:56.648Z,96597.11
2019-05-10T01:24:00.507Z,96604.34
2019-05-10T01:25:05.557Z,96604.34
2019-05-10T01:26:09.407Z,96606.67
2019-05-10T01:27:13.064Z,96612.40
2019-05-10T01:28:16.875Z,96613.52
2019-05-10T01:29:20.564Z,96613.52
2019-05-10T01:30:24.394Z,96613.97
2019-05-10T01:31:28.177Z,96614.81
2019-05-10T01:32:32.022Z,96615.03
2019-05-10T01:33:35.646Z,96619.28
2019-05-10T01:34:39.502Z,96619.13
2019-05-10T01:35:43.165Z,96613.40
2019-05-10T01:36:46.932Z,96621.35
2019-05-10T01:37:50.562Z,96617.37
2019-05-10T01:38:54.413Z,96625.67
2019-05-10T01:39:58.008Z,96613.69
2019-05-10T01:41:02.238Z,96613.69
2019-05-10T01:42:05.970Z,96618.34
2019-05-10T01:43:09.796Z,96616.03
2019-05-10T01:44:13.866Z,96616.03
2019-05-10T01:45:18.121Z,96614.91
2019-05-10T01:46:21.749Z,96615.66
2019-05-10T01:47:25.594Z,96613.84
2019-05-10T01:48:29.620Z,96622.70
2019-05-10T01:49:33.785Z,96622.48
2019-05-10T01:50:37.665Z,96618.50
2019-05-10T01:51:41.502Z,96614.67
2019-05-10T01:52:45.133Z,96612.62
2019-05-10T01:53:49.313Z,96600.84
2019-05-10T01:54:53.050Z,96600.84
2019-05-10T01:55:56.909Z,96611.43
2019-05-10T01:57:00.644Z,96609.14
2019-05-10T01:58:04.543Z,96612.27
2019-05-10T01:59:08.183Z,96604.98
2019-05-10T02:00:12.414Z,96626.14
2019-05-10T02:01:16.112Z,96626.14
2019-05-10T02:02:20.037Z,96619.22
2019-05-10T02:03:23.660Z,96619.22
2019-05-10T02:04:27.940Z,96621.35
2019-05-10T02:05:31.946Z,96616.16
2019-05-10T02:06:35.808Z,96609.14
2019-05-10T02:07:39.531Z,96612.68
2019-05-10T02:08:43.424Z,96613.46
2019-05-10T02:09:47.057Z,96604.59
2019-05-10T02:10:50.919Z,96602.41
2019-05-10T02:11:54.942Z,96602.41
2019-05-10T02:12:58.761Z,96604.48
2019-05-10T02:14:02.569Z,96603.82
2019-05-10T02:15:08.354Z,96603.20
2019-05-10T02:16:11.989Z,96606.11
2019-05-10T02:17:15.948Z,96609.70
2019-05-10T02:18:19.573Z,96611.52
2019-05-10T02:19:23.642Z,96619.88
2019-05-10T02:20:27.304Z,96619.88
2019-05-10T02:21:31.123Z,96615.63
2019-05-10T02:22:34.914Z,96612.52
2019-05-10T02:23:38.758Z,96612.58
2019-05-10T02:24:42.327Z,96603.57
2019-05-10T02:25:46.153Z,96603.57
2019-05-10T02:26:49.895Z,96604.51
2019-05-10T02:27:53.787Z,96608.89
2019-05-10T02:28:57.432Z,96609.23
2019-05-10T02:30:01.385Z,96614.61
2019-05-10T02:31:05.013Z,96620.00
2019-05-10T02:32:08.835Z,96615.96
2019-05-10T02:33:12.566Z,96618.80
2019-05-10T02:34:16.873Z,96626.09
2019-05-10T02:35:20.505Z,96629.50
2019-05-10T02:36:24.330Z,96634.66
2019-05-10T02:37:28.055Z,96636.91
2019-05-10T02:38:32.020Z,96632.47
2019-05-10T02:39:35.747Z,96636.70
2019-05-10T02:40:39.643Z,96632.66
2019-05-10T02:41:43.294Z,96635.16
2019-05-10T02:42:47.109Z,96643.23
2019-05-10T02:43:50.861Z,96639.04
2019-05-10T02:44:54.818Z,96638.20
2019-05-10T02:45:58.459Z,96636.80
2019-05-10T02:47:02.314Z,96634.11
2019-05-10T02:48:05.975Z,96631.48
2019-05-10T02:49:09.823Z,96630.97
2019-05-10T02:50:13.711Z,96634.94
2019-05-10T02:51:17.597Z,96637.67
2019-05-10T02:52:21.295Z,96640.20
2019-05-10T02:53:25.723Z,96638.22
2019-05-10T02:54:29.582Z,96635.92
2019-05-10T02:55:35.112Z,96637.14
2019-05-10T02:56:39.847Z,96638.22
2019-05-10T02:57:44.774Z,96638.73
2019-05-10T02:58:51.153Z,96634.70
2019-05-10T02:59:56.012Z,96632.13
2019-05-10T03:01:05.472Z,96629.93
2019-05-10T03:02:09.291Z,96632.11
2019-05-10T03:03:13.074Z,96631.37
2019-05-10T03:04:16.894Z,96630.73
2019-05-10T03:05:20.684Z,96631.08
2019-05-10T03:06:27.013Z,96634.20
2019-05-10T03:07:33.395Z,96633.64
2019-05-10T03:08:48.493Z,96634.77
2019-05-10T03:09:53.049Z,96632.52
2019-05-10T03:10:58.347Z,96631.47
2019-05-10T03:12:13.386Z,96629.56
2019-05-10T03:13:19.885Z,96628.34
2019-05-10T03:14:26.660Z,96623.89
2019-05-10T03:15:33.389Z,96627.48
2019-05-10T03:16:39.485Z,96626.14
2019-05-10T03:17:43.328Z,96625.36
2019-05-10T03:18:49.164Z,96624.80
2019-05-10T03:19:54.543Z,96625.98
2019-05-10T03:21:00.599Z,96621.10
2019-05-10T03:22:06.426Z,96627.33
2019-05-10T03:23:13.325Z,96625.53
2019-05-10T03:24:17.154Z,96627.73
2019-05-10T03:25:20.792Z,96626.61
2019-05-10T03:26:24.640Z,96628.58
2019-05-10T03:27:28.326Z,96630.16
2019-05-10T03:28:32.127Z,96628.58
2019-05-10T03:29:36.117Z,96634.75
2019-05-10T03:30:39.942Z,96637.44
2019-05-10T03:31:43.676Z,96641.69
2019-05-10T03:32:47.605Z,96644.95
2019-05-10T03:33:56.409Z,96645.16
2019-05-10T03:34:56.865Z,96641.91
2019-05-10T03:36:00.528Z,96651.74
2019-05-10T03:37:04.570Z,96644.05
2019-05-10T03:38:08.335Z,96642.48
2019-05-10T03:39:12.294Z,96645.95
2019-05-10T03:40:16.582Z,96649.77
2019-05-10T03:41:20.505Z,96650.67
2019-05-10T03:42:24.397Z,96649.55
2019-05-10T03:43:28.380Z,96648.98
2019-05-10T03:44:32.024Z,96646.73
2019-05-10T03:45:36.221Z,96646.73
2019-05-10T03:46:39.889Z,96648.27
2019-05-10T03:47:43.723Z,96652.53
2019-05-10T03:48:47.493Z,96652.59
2019-05-10T03:49:51.379Z,96643.62
2019-05-10T03:50:55.394Z,96649.30
2019-05-10T03:51:59.214Z,96657.93
2019-05-10T03:53:03.082Z,96653.67
2019-05-10T03:54:06.982Z,96648.00
2019-05-10T03:55:10.820Z,96651.41
2019-05-10T03:56:14.658Z,96652.11
2019-05-10T03:57:18.722Z,96651.16
2019-05-10T03:58:22.902Z,96654.89
2019-05-10T03:59:26.901Z,96657.36
2019-05-10T04:00:30.868Z,96657.92
2019-05-10T04:01:34.548Z,96655.58
2019-05-10T04:02:38.734Z,96662.66
2019-05-10T04:03:42.366Z,96664.23
2019-05-10T04:04:46.262Z,96667.48
2019-05-10T04:05:49.915Z,96675.55
2019-05-10T04:06:53.767Z,96671.97
2019-05-10T04:07:57.418Z,96674.66
2019-05-10T04:09:01.341Z,96674.66
2019-05-10T04:10:06.340Z,96674.25
2019-05-10T04:11:10.250Z,96674.77
2019-05-10T04:12:13.909Z,96673.55
2019-05-10T04:13:17.758Z,96680.45
2019-05-10T04:14:22.566Z,96680.25
2019-05-10T04:15:26.466Z,96677.37
2019-05-10T04:16:30.094Z,96677.19
2019-05-10T04:17:34.384Z,96678.14
2019-05-10T04:18:38.022Z,96676.91
2019-05-10T04:19:43.298Z,96674.55
2019-05-10T04:20:49.929Z,96673.52
2019-05-10T04:21:53.749Z,96672.20
2019-05-10T04:22:57.420Z,96677.13
2019-05-10T04:24:01.246Z,96674.66
2019-05-10T04:25:06.001Z,96674.91
2019-05-10T04:26:13.855Z,96680.45
2019-05-10T04:27:31.372Z,96676.84
2019-05-10T04:28:28.812Z,96681.47
2019-05-10T04:29:32.499Z,96682.78
2019-05-10T04:30:36.325Z,96683.31
2019-05-10T04:31:40.086Z,96684.27
2019-05-10T04:32:45.181Z,96688.09
2019-05-10T04:33:48.786Z,96685.54
2019-05-10T04:34:52.720Z,96684.75
2019-05-10T04:35:56.373Z,96687.64
2019-05-10T04:37:00.562Z,96691.25
2019-05-10T04:38:04.225Z,96691.09
2019-05-10T04:39:10.971Z,96684.35
2019-05-10T04:40:15.018Z,96680.48
2019-05-10T04:41:18.944Z,96686.09
2019-05-10T04:42:22.635Z,96682.31
2019-05-10T04:43:26.774Z,96683.12
2019-05-10T04:44:30.444Z,96687.83
2019-05-10T04:45:34.339Z,96684.27
2019-05-10T04:46:43.021Z,96691.98
2019-05-10T04:47:47.190Z,96698.59
2019-05-10T04:48:50.837Z,96694.06
2019-05-10T04:49:54.667Z,96694.27
2019-05-10T04:50:58.301Z,96692.22
2019-05-10T04:52:04.356Z,96703.16
2019-05-10T04:53:09.282Z,96702.46
2019-05-10T04:54:13.086Z,96704.25
2019-05-10T04:55:16.805Z,96699.71
2019-05-10T04:56:22.190Z,96706.25
2019-05-10T04:57:25.927Z,96696.66
2019-05-10T04:58:29.768Z,96702.45
2019-05-10T04:59:33.427Z,96700.62
2019-05-10T05:00:37.326Z,96700.92
2019-05-10T05:01:41.005Z,96700.87
2019-05-10T05:02:44.950Z,96699.83
2019-05-10T05:03:48.590Z,96696.09
2019-05-10T05:04:52.433Z,96697.41
2019-05-10T05:05:56.191Z,96694.23
2019-05-10T05:07:00.013Z,96693.49
2019-05-10T05:08:06.313Z,96689.19
2019-05-10T05:09:09.405Z,96695.92
2019-05-10T05:10:13.270Z,96695.58
2019-05-10T05:11:17.529Z,96702.45
2019-05-10T05:12:21.539Z,96698.41
2019-05-10T05:13:25.417Z,96700.41
2019-05-10T05:14:29.107Z,96703.80
2019-05-10T05:15:32.941Z,96705.20
2019-05-10T05:16:36.601Z,96701.88
2019-05-10T05:17:40.844Z,96708.09
2019-05-10T05:18:44.588Z,96699.39
2019-05-10T05:19:48.417Z,96696.28
2019-05-10T05:20:52.191Z,96699.58
2019-05-10T05:21:56.027Z,96693.77
2019-05-10T05:22:59.601Z,96699.07
2019-05-10T05:24:03.566Z,96693.97
2019-05-10T05:25:10.767Z,96696.70
2019-05-10T05:26:15.012Z,96700.66
2019-05-10T05:27:20.551Z,96701.44
2019-05-10T05:28:24.748Z,96707.07
2019-05-10T05:29:28.514Z,96708.13
2019-05-10T05:30:32.496Z,96708.13
2019-05-10T05:31:36.577Z,96712.38
2019-05-10T05:32:44.462Z,96716.44
2019-05-10T05:33:45.795Z,96721.85
2019-05-10T05:34:49.639Z,96723.56
2019-05-10T05:35:53.280Z,96723.49
2019-05-10T05:36:57.579Z,96720.88
2019-05-10T05:38:01.328Z,96720.88
2019-05-10T05:39:07.041Z,96722.33
2019-05-10T05:40:11.600Z,96721.50
2019-05-10T05:41:15.450Z,96710.95
2019-05-10T05:42:22.301Z,96723.85
2019-05-10T05:43:24.702Z,96721.94
2019-05-10T05:44:28.352Z,96727.53
2019-05-10T05:45:34.083Z,96723.89
2019-05-10T05:46:37.603Z,96722.63
2019-05-10T05:47:42.304Z,96719.19
2019-05-10T05:48:46.848Z,96721.30
2019-05-10T05:49:50.756Z,96717.09
2019-05-10T05:50:54.394Z,96714.83
2019-05-10T05:51:58.223Z,96709.88
2019-05-10T05:53:01.905Z,96709.92
2019-05-10T05:54:05.836Z,96712.93
2019-05-10T05:55:09.890Z,96704.84
2019-05-10T05:56:14.662Z,96710.33
2019-05-10T05:57:22.118Z,96693.91
2019-05-10T05:58:27.014Z,96693.91
2019-05-10T05:59:29.511Z,96701.48
2019-05-10T06:00:37.789Z,96701.34
2019-05-10T06:01:38.838Z,96708.53
2019-05-10T06:02:45.122Z,96708.53
2019-05-10T06:03:48.131Z,96708.66
2019-05-10T06:04:51.973Z,96703.92
2019-05-10T06:05:55.673Z,96710.19
2019-05-10T06:07:00.603Z,96711.92
2019-05-10T06:08:04.540Z,96708.00
2019-05-10T06:09:08.621Z,96712.80
2019-05-10T06:10:17.290Z,96715.84
2019-05-10T06:11:18.446Z,96717.38
2019-05-10T06:12:22.386Z,96712.84
2019-05-10T06:13:30.189Z,96713.67
2019-05-10T06:14:31.626Z,96720.23
2019-05-10T06:15:35.504Z,96720.84
2019-05-10T06:16:39.164Z,96717.16
2019-05-10T06:17:43.061Z,96716.95
2019-05-10T06:18:47.799Z,96710.94
2019-05-10T06:19:52.276Z,96713.84
2019-05-10T06:20:55.922Z,96703.81
2019-05-10T06:22:04.673Z,96704.42
2019-05-10T06:23:07.275Z,96706.88
2019-05-10T06:24:13.310Z,96707.32
2019-05-10T06:25:16.723Z,96702.64
2019-05-10T06:26:28.059Z,96708.11
2019-05-10T06:27:25.909Z,96701.65
2019-05-10T06:28:57.073Z,96710.84
2019-05-10T06:29:35.599Z,96711.17
2019-05-10T06:30:39.422Z,96712.16
2019-05-10T06:31:43.150Z,96717.14
2019-05-10T06:32:46.944Z,96713.00
2019-05-10T06:33:50.584Z,96715.70
2019-05-10T06:34:54.438Z,96718.72
2019-05-10T06:35:58.100Z,96714.55
2019-05-10T06:37:02.061Z,96711.34
2019-05-10T06:38:05.670Z,96715.92
2019-05-10T06:39:09.619Z,96714.84
2019-05-10T06:40:13.436Z,96711.35
2019-05-10T06:41:19.232Z,96711.27
2019-05-10T06:42:22.697Z,96715.13
2019-05-10T06:43:26.641Z,96716.25
2019-05-10T06:44:31.125Z,96718.44
2019-05-10T06:45:35.957Z,96717.33
2019-05-10T06:46:39.776Z,96718.61
2019-05-10T06:47:47.676Z,96716.48
2019-05-10T06:48:48.907Z,96721.81
2019-05-10T06:49:52.800Z,96715.87
2019-05-10T06:50:56.446Z,96717.34
2019-05-10T06:52:00.320Z,96720.36
2019-05-10T06:53:07.747Z,96714.89
2019-05-10T06:54:09.519Z,96721.81
2019-05-10T06:55:13.714Z,96724.31
2019-05-10T06:56:17.547Z,96724.41
2019-05-10T06:57:21.410Z,96737.06
2019-05-10T06:58:25.369Z,96738.23
2019-05-10T06:59:29.020Z,96741.67
2019-05-10T07:00:37.930Z,96750.80
2019-05-10T07:01:44.888Z,96755.49
2019-05-10T07:02:43.827Z,96759.14
2019-05-10T07:03:47.820Z,96763.75
2019-05-10T07:04:51.681Z,96753.47
2019-05-10T07:05:55.361Z,96751.84
2019-05-10T07:06:59.183Z,96758.72
2019-05-10T07:08:14.016Z,96755.36
2019-05-10T07:09:08.951Z,96750.62
2019-05-10T07:10:19.013Z,96756.17
2019-05-10T07:11:20.130Z,96757.16
2019-05-10T07:12:23.872Z,96755.99
2019-05-10T07:13:27.698Z,96761.41
2019-05-10T07:14:31.466Z,96756.13
2019-05-10T07:15:41.514Z,96754.03
2019-05-10T07:16:42.839Z,96760.34
2019-05-10T07:17:47.325Z,96763.98
2019-05-10T07:18:54.962Z,96765.40
2019-05-10T07:19:56.825Z,96768.73
2019-05-10T07:21:06.194Z,96770.58
2019-05-10T07:22:06.395Z,96771.80
2019-05-10T07:23:10.058Z,96772.44
2019-05-10T07:24:18.489Z,96779.45
2019-05-10T07:25:19.350Z,96779.52
2019-05-10T07:26:26.424Z,96783.47
2019-05-10T07:27:28.602Z,96789.12
2019-05-10T07:28:32.427Z,96783.51
2019-05-10T07:29:42.724Z,96781.59
2019-05-10T07:30:41.947Z,96782.16
2019-05-10T07:31:45.676Z,96779.27
2019-05-10T07:32:49.500Z,96783.19
2019-05-10T07:33:53.200Z,96785.47
2019-05-10T07:35:00.839Z,96784.22
2019-05-10T07:36:02.499Z,96780.41
2019-05-10T07:37:06.599Z,96782.22
2019-05-10T07:38:10.254Z,96780.42
2019-05-10T07:39:14.071Z,96775.65
2019-05-10T07:40:17.865Z,96776.76
2019-05-10T07:41:26.376Z,96779.47
2019-05-10T07:42:27.086Z,96776.22
2019-05-10T07:43:32.138Z,96779.50
2019-05-10T07:44:35.866Z,96780.30
2019-05-10T07:45:39.761Z,96777.67
2019-05-10T07:46:47.006Z,96785.78
2019-05-10T07:47:49.499Z,96779.44
2019-05-10T07:48:53.944Z,96782.94
2019-05-10T07:49:57.849Z,96782.66
2019-05-10T07:51:01.605Z,96775.45
2019-05-10T07:52:05.509Z,96773.89
2019-05-10T07:53:09.213Z,96773.67
2019-05-10T07:54:13.018Z,96768.38
2019-05-10T07:55:18.564Z,96772.38
2019-05-10T07:56:22.280Z,96765.84
2019-05-10T07:57:27.117Z,96765.62
2019-05-10T07:58:31.140Z,96766.33
2019-05-10T07:59:49.416Z,96765.14
2019-05-10T08:00:44.443Z,96773.23
2019-05-10T08:01:48.987Z,96770.22
2019-05-10T08:03:02.426Z,96778.02
2019-05-10T08:03:59.059Z,96772.92
2019-05-10T08:05:04.859Z,96778.91
2019-05-10T08:06:08.347Z,96772.45
2019-05-10T08:07:12.468Z,96776.59
2019-05-10T08:08:19.000Z,96770.89
2019-05-10T08:09:22.049Z,96774.64
2019-05-10T08:10:25.803Z,96770.09
2019-05-10T08:11:29.643Z,96768.56
2019-05-10T08:12:35.125Z,96771.06
2019-05-10T08:13:39.486Z,96773.59
2019-05-10T08:14:44.488Z,96775.30
2019-05-10T08:15:49.092Z,96778.23
2019-05-10T08:16:58.560Z,96772.48
2019-05-10T08:17:58.733Z,96777.46
2019-05-10T08:19:02.808Z,96777.66
2019-05-10T08:20:20.331Z,96782.58
2019-05-10T08:21:21.856Z,96780.59
2019-05-10T08:22:22.835Z,96772.05
2019-05-10T08:23:27.953Z,96779.09
2019-05-10T08:24:32.810Z,96784.20
2019-05-10T08:25:43.819Z,96776.43
2019-05-10T08:26:42.691Z,96781.62
2019-05-10T08:27:50.555Z,96779.06
2019-05-10T08:28:52.692Z,96779.90
2019-05-10T08:30:17.884Z,96774.92
2019-05-10T08:31:02.611Z,96777.39
2019-05-10T08:32:06.592Z,96778.70
2019-05-10T08:33:13.537Z,96771.77
2019-05-10T08:34:15.922Z,96763.78
2019-05-10T08:35:19.775Z,96762.88
2019-05-10T08:36:23.619Z,96766.10
2019-05-10T08:37:33.449Z,96763.55
2019-05-10T08:38:32.812Z,96769.79
2019-05-10T08:39:45.303Z,96759.75
2019-05-10T08:40:42.948Z,96760.90
2019-05-10T08:42:01.269Z,96757.48
2019-05-10T08:43:00.160Z,96758.20
2019-05-10T08:43:58.381Z,96762.20
2019-05-10T08:45:05.395Z,96763.28
2019-05-10T08:46:07.552Z,96759.31
2019-05-10T08:47:16.129Z,96763.65
2019-05-10T08:48:16.778Z,96760.86
2019-05-10T08:49:21.966Z,96768.07
2019-05-10T08:50:42.561Z,96761.77
2019-05-10T08:51:32.277Z,96770.11
2019-05-10T08:52:37.549Z,96757.64
2019-05-10T08:53:42.155Z,96766.94
2019-05-10T08:54:46.268Z,96765.84
2019-05-10T08:55:52.306Z,96764.20
2019-05-10T08:59:38.707Z,96764.78
2019-05-10T09:00:54.349Z,96757.15
2019-05-10T09:01:50.830Z,96762.55
2019-05-10T09:02:53.379Z,96760.84
2019-05-10T09:04:00.868Z,96762.72
2019-05-10T09:05:02.784Z,96765.42
2019-05-10T09:06:11.793Z,96764.18
2019-05-10T09:07:12.399Z,96762.77
2019-05-10T09:08:20.199Z,96755.45
2019-05-10T09:09:22.767Z,96755.72
2019-05-10T09:10:26.789Z,96770.84
2019-05-10T09:11:32.665Z,96761.39
2019-05-10T09:12:41.768Z,96760.26
2019-05-10T09:13:45.743Z,96766.64
2019-05-10T09:14:48.890Z,96765.59
2019-05-10T09:15:56.659Z,96761.50
2019-05-10T09:17:01.759Z,96759.69
2019-05-10T09:18:07.221Z,96758.12
2019-05-10T09:19:08.756Z,96760.34
2019-05-10T09:20:20.919Z,96758.39
2019-05-10T09:21:22.527Z,96759.11
2019-05-10T09:22:33.774Z,96754.62
2019-05-10T09:23:32.719Z,96756.33
2019-05-10T09:24:41.083Z,96755.50
2019-05-10T09:25:42.792Z,96745.89
2019-05-10T09:26:51.617Z,96741.94
2019-05-10T09:27:53.114Z,96747.55
2019-05-10T09:28:57.822Z,96743.51
2019-05-10T09:30:02.915Z,96745.13
2019-05-10T09:31:18.929Z,96745.80
2019-05-10T09:32:12.682Z,96744.81
2019-05-10T09:33:16.407Z,96749.98
2019-05-10T09:34:23.869Z,96741.24
2019-05-10T09:35:25.684Z,96749.02
2019-05-10T09:36:35.368Z,96745.23
2019-05-10T09:37:35.063Z,96742.05
2019-05-10T09:38:42.967Z,96742.92
2019-05-10T09:39:44.479Z,96737.58
2019-05-10T09:40:53.025Z,96733.61
2019-05-10T09:41:53.713Z,96734.68
2019-05-10T09:42:59.371Z,96738.89
2019-05-10T09:44:03.184Z,96734.24
2019-05-10T09:45:09.679Z,96731.50
2019-05-10T09:46:14.151Z,96742.77
2019-05-10T09:47:18.163Z,96746.06
2019-05-10T09:48:22.860Z,96748.68
2019-05-10T09:49:26.978Z,96749.88
2019-05-10T09:50:40.814Z,96740.52
2019-05-10T09:51:36.158Z,96739.52
2019-05-10T09:52:40.824Z,96741.89
2019-05-10T09:53:44.720Z,96737.94
2019-05-10T09:54:49.605Z,96747.84
2019-05-10T09:56:01.669Z,96749.11
2019-05-10T09:56:58.963Z,96754.41
2019-05-10T09:58:02.811Z,96745.72
2019-05-10T09:59:08.197Z,96755.41
2019-05-10T10:00:12.788Z,96748.31
2019-05-10T10:01:20.731Z,96747.09
2019-05-10T10:02:22.110Z,96743.52
2019-05-10T10:03:29.619Z,96745.23
2019-05-10T10:04:31.425Z,96736.68
2019-05-10T10:05:35.060Z,96740.20
2019-05-10T10:06:41.894Z,96731.20
2019-05-10T10:07:44.339Z,96737.19
2019-05-10T10:08:51.819Z,96730.83
2019-05-10T10:09:53.655Z,96726.98
2019-05-10T10:11:01.086Z,96727.08
2019-05-10T10:12:03.412Z,96733.69
2019-05-10T10:13:13.186Z,96730.58
2019-05-10T10:14:13.259Z,96722.48
2019-05-10T10:15:25.254Z,96719.39
2019-05-10T10:16:22.441Z,96722.39
2019-05-10T10:17:27.886Z,96717.20
2019-05-10T10:18:31.719Z,96719.14
2019-05-10T10:19:37.565Z,96721.14
2019-05-10T10:20:45.004Z,96719.71
2019-05-10T10:21:47.630Z,96723.90
2019-05-10T10:22:54.510Z,96721.67
2019-05-10T10:24:00.286Z,96715.05
2019-05-10T10:25:02.749Z,96713.02
2019-05-10T10:26:07.318Z,96712.59
2019-05-10T10:27:11.073Z,96725.21
2019-05-10T10:28:19.958Z,96726.08
2019-05-10T10:29:20.360Z,96721.14
2019-05-10T10:30:24.460Z,96722.91
2019-05-10T10:31:33.164Z,96722.68
2019-05-10T10:32:34.902Z,96733.58
2019-05-10T10:33:38.954Z,96732.13
2019-05-10T10:34:43.342Z,96736.02
2019-05-10T10:35:48.103Z,96728.59
2019-05-10T10:36:52.314Z,96735.67
2019-05-10T10:37:57.371Z,96740.12
2019-05-10T10:39:01.722Z,96738.92
2019-05-10T10:40:08.657Z,96742.20
2019-05-10T10:41:17.199Z,96733.17
2019-05-10T10:42:18.321Z,96731.21
2019-05-10T10:43:22.228Z,96733.88
2019-05-10T10:44:27.076Z,96738.83
2019-05-10T10:45:31.068Z,96736.25
2019-05-10T10:46:36.632Z,96733.76
2019-05-10T10:47:40.484Z,96738.54
2019-05-10T10:48:49.169Z,96734.77
2019-05-10T10:49:49.778Z,96742.08
2019-05-10T10:50:55.686Z,96739.75
2019-05-10T10:51:59.259Z,96740.80
2019-05-10T10:53:02.918Z,96745.29
2019-05-10T10:54:07.474Z,96738.97
2019-05-10T10:55:13.428Z,96740.80
2019-05-10T10:56:17.778Z,96744.78
2019-05-10T10:57:21.528Z,96739.63
2019-05-10T10:58:27.485Z,96734.40
2019-05-10T10:59:31.136Z,96734.35
2019-05-10T11:00:38.982Z,96728.45
2019-05-10T11:01:50.033Z,96742.07
2019-05-10T11:02:51.927Z,96734.67
2019-05-10T11:03:53.054Z,96736.56
2019-05-10T11:04:56.880Z,96742.80
2019-05-10T11:06:00.668Z,96739.52
2019-05-10T11:07:10.346Z,96738.56
2019-05-10T11:08:11.160Z,96742.34
2019-05-10T11:09:15.136Z,96745.09
2019-05-10T11:10:22.395Z,96749.71
2019-05-10T11:11:30.480Z,96745.55
2019-05-10T11:12:31.593Z,96747.02
2019-05-10T11:13:45.741Z,96747.42
2019-05-10T11:14:45.287Z,96743.38
2019-05-10T11:15:46.812Z,96739.24
2019-05-10T11:16:55.465Z,96746.00
2019-05-10T11:17:56.624Z,96741.23
2019-05-10T11:19:03.809Z,96743.38
2019-05-10T11:20:09.279Z,96742.58
2019-05-10T11:21:12.672Z,96740.69
2019-05-10T11:22:16.531Z,96738.73
2019-05-10T11:23:24.480Z,96735.45
2019-05-10T11:24:25.851Z,96733.47
2019-05-10T11:25:29.568Z,96733.91
2019-05-10T11:26:36.863Z,96739.66
2019-05-10T11:27:41.419Z,96738.47
2019-05-10T11:28:44.656Z,96739.00
2019-05-10T11:29:51.908Z,96734.87
2019-05-10T11:30:53.822Z,96735.36
2019-05-10T11:32:12.340Z,96734.76
2019-05-10T11:33:03.435Z,96739.13
2019-05-10T11:34:07.191Z,96740.11
2019-05-10T11:35:11.908Z,96737.26
2019-05-10T11:36:16.818Z,96744.75
2019-05-10T11:37:31.165Z,96735.23
2019-05-10T11:38:26.282Z,96737.63
2019-05-10T11:39:33.176Z,96733.30
2019-05-10T11:40:35.431Z,96725.97
2019-05-10T11:41:39.253Z,96731.81
2019-05-10T11:42:47.296Z,96727.00
2019-05-10T11:43:48.535Z,96725.06
2019-05-10T11:44:54.611Z,96729.27
2019-05-10T11:45:58.293Z,96724.61
2019-05-10T11:47:01.923Z,96730.69
2019-05-10T11:48:05.727Z,96730.18
2019-05-10T11:49:10.623Z,96737.52
2019-05-10T11:50:27.835Z,96735.56
2019-05-10T11:51:21.178Z,96730.58
2019-05-10T11:52:29.039Z,96735.70
2019-05-10T11:53:31.601Z,96736.56
2019-05-10T11:54:35.548Z,96747.36
2019-05-10T11:55:41.159Z,96744.80
2019-05-10T11:56:44.939Z,96732.63
2019-05-10T11:58:55.661Z,96732.55
2019-05-10T11:59:04.539Z,96736.57
2019-05-10T11:59:59.363Z,96734.13
2019-05-10T12:01:16.404Z,96737.38
2019-05-10T12:02:10.452Z,96738.05
2019-05-10T12:04:33.076Z,96741.70
2019-05-10T12:05:26.820Z,96741.21
2019-05-10T12:06:31.957Z,96742.43
2019-05-10T12:07:45.398Z,96744.16
2019-05-10T12:08:41.986Z,96747.23
2019-05-10T12:09:53.288Z,96739.42
2019-05-10T12:10:54.429Z,96749.97
2019-05-10T12:11:57.189Z,96740.66
2019-05-10T12:13:11.284Z,96750.80
2019-05-10T12:14:06.383Z,96747.88
2019-05-10T12:15:13.761Z,96744.59
2019-05-10T12:16:16.992Z,96748.58
2019-05-10T12:17:24.053Z,96751.49
2019-05-10T12:18:27.191Z,96748.22
2019-05-10T12:19:36.750Z,96747.45
2019-05-10T12:20:51.052Z,96744.06
2019-05-10T12:21:42.035Z,96750.58
2019-05-10T12:22:47.726Z,96745.13
2019-05-10T12:23:55.982Z,96747.17
2019-05-10T12:25:20.602Z,96754.20
2019-05-10T12:26:06.158Z,96737.97
2019-05-10T12:27:13.913Z,96751.92
2019-05-10T12:27:25.304Z,96736.56
2019-05-10T12:28:15.340Z,96745.83
2019-05-10T12:29:21.262Z,96735.69
2019-05-10T12:30:29.554Z,96731.41
2019-05-10T12:31:33.027Z,96738.17
2019-05-10T12:32:53.546Z,96738.57
2019-05-10T12:33:45.299Z,96724.09
2019-05-10T12:34:52.021Z,96732.83
2019-05-10T12:35:53.802Z,96736.22
2019-05-10T12:37:02.574Z,96734.07
2019-05-10T12:38:03.134Z,96742.08
2019-05-10T12:39:07.983Z,96732.82
2019-05-10T12:40:15.155Z,96737.09
2019-05-10T12:41:17.628Z,96741.38
2019-05-10T12:42:21.914Z,96740.34